sensor_id;sensor_type;location;lat;lon;timestamp;P1;durP1;ratioP1;P2;durP2;ratioP2
2622;SDS011;1321;48.690;9.022;2023-05-16T00:02:18;22.50;;;21.30;;
2622;SDS011;1321;48.690;9.022;2023-05-16T00:04:47;23.17;;;21.97;;
2622;SDS011;1321;48.690;9.022;2023-05-16T00:10:13;23.90;;;22.60;;
2622;SDS011;1321;48.690;9.022;2023-05-16T00:12:41;23.33;;;22.07;;
2622;SDS011;1321;48.690;9.022;2023-05-16T00:15:11;25.80;;;24.10;;
2622;SDS011;1321;48.690;9.022;2023-05-16T00:17:39;24.50;;;23.10;;
2622;SDS011;1321;48.690;9.022;2023-05-16T00:20:12;24.20;;;22.90;;
2622;SDS011;1321;48.690;9.022;2023-05-16T00:22:42;26.70;;;24.80;;
2622;SDS011;1321;48.690;9.022;2023-05-16T00:25:15;26.67;;;25.07;;
2622;SDS011;1321;48.690;9.022;2023-05-16T00:27:50;29.67;;;27.57;;
2622;SDS011;1321;48.690;9.022;2023-05-16T00:30:51;28.50;;;26.33;;
2622;SDS011;1321;48.690;9.022;2023-05-16T00:33:27;28.60;;;26.67;;
2622;SDS011;1321;48.690;9.022;2023-05-16T00:35:56;28.23;;;26.23;;
2622;SDS011;1321;48.690;9.022;2023-05-16T00:38:31;27.27;;;25.47;;
2622;SDS011;1321;48.690;9.022;2023-05-16T01:06:39;26.67;;;24.87;;
2622;SDS011;1321;48.690;9.022;2023-05-16T01:09:08;28.50;;;26.60;;
2622;SDS011;1321;48.690;9.022;2023-05-16T01:11:39;28.83;;;26.77;;
2622;SDS011;1321;48.690;9.022;2023-05-16T01:14:15;31.13;;;28.67;;
2622;SDS011;1321;48.690;9.022;2023-05-16T01:16:52;32.53;;;29.93;;
2622;SDS011;1321;48.690;9.022;2023-05-16T01:19:31;31.73;;;29.43;;
2622;SDS011;1321;48.690;9.022;2023-05-16T01:22:25;32.80;;;30.20;;
2622;SDS011;1321;48.690;9.022;2023-05-16T01:25:01;34.03;;;31.47;;
2622;SDS011;1321;48.690;9.022;2023-05-16T01:27:39;33.80;;;31.10;;
2622;SDS011;1321;48.690;9.022;2023-05-16T01:30:15;33.87;;;31.37;;
2622;SDS011;1321;48.690;9.022;2023-05-16T01:32:44;34.23;;;31.17;;
2622;SDS011;1321;48.690;9.022;2023-05-16T01:35:13;31.90;;;29.47;;
2622;SDS011;1321;48.690;9.022;2023-05-16T01:37:44;34.43;;;31.53;;
2622;SDS011;1321;48.690;9.022;2023-05-16T01:40:21;33.93;;;31.40;;
2622;SDS011;1321;48.690;9.022;2023-05-16T01:42:57;34.13;;;31.43;;
2622;SDS011;1321;48.690;9.022;2023-05-16T01:45:30;33.00;;;30.50;;
2622;SDS011;1321;48.690;9.022;2023-05-16T01:48:03;35.13;;;32.33;;
2622;SDS011;1321;48.690;9.022;2023-05-16T01:50:35;35.37;;;32.57;;
2622;SDS011;1321;48.690;9.022;2023-05-16T01:53:11;35.30;;;32.40;;
2622;SDS011;1321;48.690;9.022;2023-05-16T01:55:44;36.17;;;33.20;;
2622;SDS011;1321;48.690;9.022;2023-05-16T01:58:16;35.33;;;32.33;;
2622;SDS011;1321;48.690;9.022;2023-05-16T02:00:46;35.83;;;32.60;;
2622;SDS011;1321;48.690;9.022;2023-05-16T02:03:14;36.03;;;32.83;;
2622;SDS011;1321;48.690;9.022;2023-05-16T02:05:43;37.07;;;33.80;;
2622;SDS011;1321;48.690;9.022;2023-05-16T02:08:12;35.00;;;32.23;;
2622;SDS011;1321;48.690;9.022;2023-05-16T02:10:40;37.30;;;34.20;;
2622;SDS011;1321;48.690;9.022;2023-05-16T02:13:08;37.33;;;34.00;;
2622;SDS011;1321;48.690;9.022;2023-05-16T02:15:38;37.10;;;33.90;;
2622;SDS011;1321;48.690;9.022;2023-05-16T02:18:06;36.13;;;32.83;;
2622;SDS011;1321;48.690;9.022;2023-05-16T02:20:35;37.40;;;34.50;;
2622;SDS011;1321;48.690;9.022;2023-05-16T02:23:03;36.63;;;33.23;;
2622;SDS011;1321;48.690;9.022;2023-05-16T02:25:31;37.57;;;34.43;;
2622;SDS011;1321;48.690;9.022;2023-05-16T02:27:59;36.77;;;33.73;;
2622;SDS011;1321;48.690;9.022;2023-05-16T02:30:27;37.43;;;34.10;;
2622;SDS011;1321;48.690;9.022;2023-05-16T02:32:57;38.63;;;35.23;;
2622;SDS011;1321;48.690;9.022;2023-05-16T02:35:25;37.30;;;34.20;;
2622;SDS011;1321;48.690;9.022;2023-05-16T02:37:53;36.33;;;33.13;;
2622;SDS011;1321;48.690;9.022;2023-05-16T02:40:22;38.70;;;35.17;;
2622;SDS011;1321;48.690;9.022;2023-05-16T02:42:50;40.67;;;36.77;;
2622;SDS011;1321;48.690;9.022;2023-05-16T02:45:18;37.67;;;34.37;;
2622;SDS011;1321;48.690;9.022;2023-05-16T02:47:46;39.03;;;35.73;;
2622;SDS011;1321;48.690;9.022;2023-05-16T02:50:16;38.70;;;35.40;;
2622;SDS011;1321;48.690;9.022;2023-05-16T02:52:44;39.40;;;35.60;;
2622;SDS011;1321;48.690;9.022;2023-05-16T02:55:12;40.77;;;36.80;;
2622;SDS011;1321;48.690;9.022;2023-05-16T02:58:00;40.30;;;36.50;;
2622;SDS011;1321;48.690;9.022;2023-05-16T03:00:28;39.10;;;35.40;;
2622;SDS011;1321;48.690;9.022;2023-05-16T03:02:57;41.57;;;37.67;;
2622;SDS011;1321;48.690;9.022;2023-05-16T03:05:26;40.30;;;36.40;;
2622;SDS011;1321;48.690;9.022;2023-05-16T03:07:55;41.90;;;37.83;;
2622;SDS011;1321;48.690;9.022;2023-05-16T03:10:23;41.27;;;37.27;;
2622;SDS011;1321;48.690;9.022;2023-05-16T03:12:51;40.73;;;36.37;;
2622;SDS011;1321;48.690;9.022;2023-05-16T03:15:19;42.60;;;38.40;;
2622;SDS011;1321;48.690;9.022;2023-05-16T03:17:47;44.63;;;39.83;;
2622;SDS011;1321;48.690;9.022;2023-05-16T03:20:16;43.17;;;39.07;;
2622;SDS011;1321;48.690;9.022;2023-05-16T03:22:45;41.83;;;38.07;;
2622;SDS011;1321;48.690;9.022;2023-05-16T03:25:14;42.20;;;38.10;;
2622;SDS011;1321;48.690;9.022;2023-05-16T03:27:42;42.43;;;38.03;;
2622;SDS011;1321;48.690;9.022;2023-05-16T03:30:10;42.03;;;37.90;;
2622;SDS011;1321;48.690;9.022;2023-05-16T03:32:39;44.50;;;39.80;;
2622;SDS011;1321;48.690;9.022;2023-05-16T03:35:08;42.33;;;38.03;;
2622;SDS011;1321;48.690;9.022;2023-05-16T03:37:37;43.43;;;39.00;;
2622;SDS011;1321;48.690;9.022;2023-05-16T03:40:08;43.83;;;39.27;;
2622;SDS011;1321;48.690;9.022;2023-05-16T03:42:37;44.97;;;40.30;;
2622;SDS011;1321;48.690;9.022;2023-05-16T03:45:06;45.23;;;40.77;;
2622;SDS011;1321;48.690;9.022;2023-05-16T03:47:35;44.67;;;40.10;;
2622;SDS011;1321;48.690;9.022;2023-05-16T03:50:03;45.43;;;41.03;;
2622;SDS011;1321;48.690;9.022;2023-05-16T03:52:32;46.10;;;40.63;;
2622;SDS011;1321;48.690;9.022;2023-05-16T03:55:01;45.00;;;40.70;;
2622;SDS011;1321;48.690;9.022;2023-05-16T03:57:31;44.73;;;40.10;;
2622;SDS011;1321;48.690;9.022;2023-05-16T03:59:59;47.10;;;42.30;;
2622;SDS011;1321;48.690;9.022;2023-05-16T04:02:32;48.20;;;42.70;;
2622;SDS011;1321;48.690;9.022;2023-05-16T04:05:00;43.87;;;39.23;;
2622;SDS011;1321;48.690;9.022;2023-05-16T04:07:29;46.03;;;41.00;;
2622;SDS011;1321;48.690;9.022;2023-05-16T04:09:58;45.83;;;41.10;;
2622;SDS011;1321;48.690;9.022;2023-05-16T04:12:26;48.23;;;43.03;;
2622;SDS011;1321;48.690;9.022;2023-05-16T04:14:55;48.20;;;43.20;;
2622;SDS011;1321;48.690;9.022;2023-05-16T04:17:24;48.00;;;43.10;;
2622;SDS011;1321;48.690;9.022;2023-05-16T04:19:55;46.93;;;42.13;;
2622;SDS011;1321;48.690;9.022;2023-05-16T04:22:23;46.23;;;41.37;;
2622;SDS011;1321;48.690;9.022;2023-05-16T04:24:51;45.90;;;41.07;;
2622;SDS011;1321;48.690;9.022;2023-05-16T04:27:19;44.87;;;40.40;;
2622;SDS011;1321;48.690;9.022;2023-05-16T04:29:47;47.20;;;42.47;;
2622;SDS011;1321;48.690;9.022;2023-05-16T04:32:17;47.33;;;42.23;;
2622;SDS011;1321;48.690;9.022;2023-05-16T04:34:45;48.03;;;43.00;;
2622;SDS011;1321;48.690;9.022;2023-05-16T04:37:15;47.30;;;42.50;;
2622;SDS011;1321;48.690;9.022;2023-05-16T04:39:43;44.83;;;40.17;;
2622;SDS011;1321;48.690;9.022;2023-05-16T04:42:12;50.10;;;41.90;;
2622;SDS011;1321;48.690;9.022;2023-05-16T04:44:40;46.93;;;42.23;;
2622;SDS011;1321;48.690;9.022;2023-05-16T04:47:09;45.90;;;41.17;;
2622;SDS011;1321;48.690;9.022;2023-05-16T04:49:38;47.20;;;42.27;;
2622;SDS011;1321;48.690;9.022;2023-05-16T04:52:06;44.97;;;40.40;;
2622;SDS011;1321;48.690;9.022;2023-05-16T04:54:36;46.90;;;42.17;;
2622;SDS011;1321;48.690;9.022;2023-05-16T04:57:04;45.50;;;40.90;;
2622;SDS011;1321;48.690;9.022;2023-05-16T04:59:33;45.73;;;41.23;;
2622;SDS011;1321;48.690;9.022;2023-05-16T05:02:01;45.60;;;41.10;;
2622;SDS011;1321;48.690;9.022;2023-05-16T05:04:29;46.33;;;41.40;;
2622;SDS011;1321;48.690;9.022;2023-05-16T05:06:59;44.57;;;40.20;;
2622;SDS011;1321;48.690;9.022;2023-05-16T05:09:27;45.97;;;41.43;;
2622;SDS011;1321;48.690;9.022;2023-05-16T05:11:55;47.37;;;42.43;;
2622;SDS011;1321;48.690;9.022;2023-05-16T05:14:23;44.80;;;40.23;;
2622;SDS011;1321;48.690;9.022;2023-05-16T05:16:51;46.70;;;41.80;;
2622;SDS011;1321;48.690;9.022;2023-05-16T05:19:19;45.80;;;41.27;;
2622;SDS011;1321;48.690;9.022;2023-05-16T05:21:48;43.23;;;38.77;;
2622;SDS011;1321;48.690;9.022;2023-05-16T05:24:17;43.77;;;39.30;;
2622;SDS011;1321;48.690;9.022;2023-05-16T05:26:45;44.63;;;40.10;;
2622;SDS011;1321;48.690;9.022;2023-05-16T05:29:13;43.87;;;39.47;;
2622;SDS011;1321;48.690;9.022;2023-05-16T05:31:41;45.50;;;41.10;;
2622;SDS011;1321;48.690;9.022;2023-05-16T05:34:10;42.50;;;38.30;;
2622;SDS011;1321;48.690;9.022;2023-05-16T05:36:38;45.00;;;40.20;;
2622;SDS011;1321;48.690;9.022;2023-05-16T05:39:06;44.03;;;39.97;;
2622;SDS011;1321;48.690;9.022;2023-05-16T05:41:36;44.33;;;39.73;;
2622;SDS011;1321;48.690;9.022;2023-05-16T05:44:05;42.60;;;38.13;;
2622;SDS011;1321;48.690;9.022;2023-05-16T05:46:33;44.90;;;40.40;;
2622;SDS011;1321;48.690;9.022;2023-05-16T05:49:01;45.20;;;40.67;;
2622;SDS011;1321;48.690;9.022;2023-05-16T05:51:30;44.37;;;39.97;;
2622;SDS011;1321;48.690;9.022;2023-05-16T05:53:58;44.87;;;40.43;;
2622;SDS011;1321;48.690;9.022;2023-05-16T05:56:26;44.63;;;40.20;;
2622;SDS011;1321;48.690;9.022;2023-05-16T05:58:56;43.47;;;39.03;;
2622;SDS011;1321;48.690;9.022;2023-05-16T06:01:24;47.60;;;43.20;;
2622;SDS011;1321;48.690;9.022;2023-05-16T06:03:52;43.87;;;39.47;;
2622;SDS011;1321;48.690;9.022;2023-05-16T06:06:21;42.40;;;38.10;;
2622;SDS011;1321;48.690;9.022;2023-05-16T06:08:49;43.63;;;39.47;;
2622;SDS011;1321;48.690;9.022;2023-05-16T06:11:17;44.07;;;39.87;;
2622;SDS011;1321;48.690;9.022;2023-05-16T06:13:45;42.20;;;38.20;;
2622;SDS011;1321;48.690;9.022;2023-05-16T06:16:15;41.13;;;37.10;;
2622;SDS011;1321;48.690;9.022;2023-05-16T06:18:45;42.10;;;38.00;;
2622;SDS011;1321;48.690;9.022;2023-05-16T06:21:14;41.83;;;37.83;;
2622;SDS011;1321;48.690;9.022;2023-05-16T06:23:46;40.30;;;36.67;;
2622;SDS011;1321;48.690;9.022;2023-05-16T06:26:25;40.00;;;36.30;;
2622;SDS011;1321;48.690;9.022;2023-05-16T06:28:53;40.47;;;36.67;;
2622;SDS011;1321;48.690;9.022;2023-05-16T06:31:24;40.67;;;37.03;;
2622;SDS011;1321;48.690;9.022;2023-05-16T06:33:54;41.67;;;37.27;;
2622;SDS011;1321;48.690;9.022;2023-05-16T06:36:22;41.10;;;37.30;;
2622;SDS011;1321;48.690;9.022;2023-05-16T06:38:50;39.60;;;36.00;;
2622;SDS011;1321;48.690;9.022;2023-05-16T06:41:18;38.00;;;34.63;;
2622;SDS011;1321;48.690;9.022;2023-05-16T06:43:47;39.93;;;36.07;;
2622;SDS011;1321;48.690;9.022;2023-05-16T06:46:15;40.90;;;36.87;;
2622;SDS011;1321;48.690;9.022;2023-05-16T06:48:45;37.33;;;33.83;;
2622;SDS011;1321;48.690;9.022;2023-05-16T06:51:14;38.90;;;35.37;;
2622;SDS011;1321;48.690;9.022;2023-05-16T06:53:42;37.17;;;33.90;;
2622;SDS011;1321;48.690;9.022;2023-05-16T06:56:12;36.53;;;33.37;;
2622;SDS011;1321;48.690;9.022;2023-05-16T06:58:40;37.97;;;34.67;;
2622;SDS011;1321;48.690;9.022;2023-05-16T07:01:08;38.30;;;34.40;;
2622;SDS011;1321;48.690;9.022;2023-05-16T07:03:37;37.50;;;34.27;;
2622;SDS011;1321;48.690;9.022;2023-05-16T07:06:07;37.07;;;33.80;;
2622;SDS011;1321;48.690;9.022;2023-05-16T07:08:35;36.53;;;33.37;;
2622;SDS011;1321;48.690;9.022;2023-05-16T07:11:03;36.63;;;33.53;;
2622;SDS011;1321;48.690;9.022;2023-05-16T07:13:32;36.17;;;33.10;;
2622;SDS011;1321;48.690;9.022;2023-05-16T07:16:01;35.23;;;32.43;;
2622;SDS011;1321;48.690;9.022;2023-05-16T07:18:30;37.10;;;34.07;;
2622;SDS011;1321;48.690;9.022;2023-05-16T07:20:58;34.33;;;31.53;;
2622;SDS011;1321;48.690;9.022;2023-05-16T07:23:27;35.60;;;32.80;;
2622;SDS011;1321;48.690;9.022;2023-05-16T07:25:56;38.10;;;34.77;;
2622;SDS011;1321;48.690;9.022;2023-05-16T07:28:25;35.00;;;32.00;;
2622;SDS011;1321;48.690;9.022;2023-05-16T07:30:53;35.50;;;32.40;;
2622;SDS011;1321;48.690;9.022;2023-05-16T07:33:24;35.83;;;33.00;;
2622;SDS011;1321;48.690;9.022;2023-05-16T07:35:52;33.57;;;30.57;;
2622;SDS011;1321;48.690;9.022;2023-05-16T07:38:41;33.10;;;30.20;;
2622;SDS011;1321;48.690;9.022;2023-05-16T07:41:10;31.40;;;29.00;;
2622;SDS011;1321;48.690;9.022;2023-05-16T07:43:38;31.00;;;28.70;;
2622;SDS011;1321;48.690;9.022;2023-05-16T07:46:06;29.37;;;26.97;;
2622;SDS011;1321;48.690;9.022;2023-05-16T07:48:35;29.57;;;27.40;;
2622;SDS011;1321;48.690;9.022;2023-05-16T07:51:03;29.00;;;26.93;;
2622;SDS011;1321;48.690;9.022;2023-05-16T07:53:31;30.00;;;27.87;;
2622;SDS011;1321;48.690;9.022;2023-05-16T07:56:01;27.77;;;25.77;;
2622;SDS011;1321;48.690;9.022;2023-05-16T07:58:29;30.00;;;28.00;;
2622;SDS011;1321;48.690;9.022;2023-05-16T08:00:58;29.10;;;26.77;;
2622;SDS011;1321;48.690;9.022;2023-05-16T08:03:27;30.17;;;27.40;;
2622;SDS011;1321;48.690;9.022;2023-05-16T08:05:55;29.67;;;27.60;;
2622;SDS011;1321;48.690;9.022;2023-05-16T08:08:24;30.63;;;28.50;;
2622;SDS011;1321;48.690;9.022;2023-05-16T08:10:52;32.03;;;29.50;;
2622;SDS011;1321;48.690;9.022;2023-05-16T08:13:22;30.97;;;28.57;;
2622;SDS011;1321;48.690;9.022;2023-05-16T08:15:51;31.53;;;29.20;;
2622;SDS011;1321;48.690;9.022;2023-05-16T08:18:20;30.63;;;28.17;;
2622;SDS011;1321;48.690;9.022;2023-05-16T08:20:48;30.97;;;28.67;;
2622;SDS011;1321;48.690;9.022;2023-05-16T08:23:17;31.30;;;29.10;;
2622;SDS011;1321;48.690;9.022;2023-05-16T08:25:46;30.63;;;28.20;;
2622;SDS011;1321;48.690;9.022;2023-05-16T08:28:15;30.47;;;27.97;;
2622;SDS011;1321;48.690;9.022;2023-05-16T08:30:44;29.63;;;27.27;;
2622;SDS011;1321;48.690;9.022;2023-05-16T08:33:13;29.03;;;26.83;;
2622;SDS011;1321;48.690;9.022;2023-05-16T08:35:42;29.60;;;27.50;;
2622;SDS011;1321;48.690;9.022;2023-05-16T08:38:10;30.00;;;27.80;;
2622;SDS011;1321;48.690;9.022;2023-05-16T08:40:38;31.03;;;28.77;;
2622;SDS011;1321;48.690;9.022;2023-05-16T08:43:08;29.20;;;27.10;;
2622;SDS011;1321;48.690;9.022;2023-05-16T08:45:36;30.40;;;28.20;;
2622;SDS011;1321;48.690;9.022;2023-05-16T08:48:07;28.03;;;26.10;;
2622;SDS011;1321;48.690;9.022;2023-05-16T08:50:37;29.67;;;27.63;;
2622;SDS011;1321;48.690;9.022;2023-05-16T08:53:08;29.90;;;27.77;;
2622;SDS011;1321;48.690;9.022;2023-05-16T08:55:39;29.07;;;26.97;;
2622;SDS011;1321;48.690;9.022;2023-05-16T08:58:09;29.93;;;27.80;;
2622;SDS011;1321;48.690;9.022;2023-05-16T09:00:38;29.20;;;27.00;;
2622;SDS011;1321;48.690;9.022;2023-05-16T09:03:08;30.67;;;28.37;;
2622;SDS011;1321;48.690;9.022;2023-05-16T09:05:37;31.90;;;29.47;;
2622;SDS011;1321;48.690;9.022;2023-05-16T09:08:05;30.57;;;28.07;;
2622;SDS011;1321;48.690;9.022;2023-05-16T09:10:34;33.10;;;30.40;;
2622;SDS011;1321;48.690;9.022;2023-05-16T09:13:02;31.30;;;29.00;;
2622;SDS011;1321;48.690;9.022;2023-05-16T09:15:31;32.07;;;29.63;;
2622;SDS011;1321;48.690;9.022;2023-05-16T09:18:00;30.63;;;28.43;;
2622;SDS011;1321;48.690;9.022;2023-05-16T09:20:30;34.37;;;31.53;;
2622;SDS011;1321;48.690;9.022;2023-05-16T09:22:58;32.60;;;29.97;;
2622;SDS011;1321;48.690;9.022;2023-05-16T09:25:27;31.13;;;28.80;;
2622;SDS011;1321;48.690;9.022;2023-05-16T09:27:58;32.10;;;29.50;;
2622;SDS011;1321;48.690;9.022;2023-05-16T09:30:29;31.33;;;28.90;;
2622;SDS011;1321;48.690;9.022;2023-05-16T09:33:00;34.17;;;31.17;;
2622;SDS011;1321;48.690;9.022;2023-05-16T09:35:30;33.87;;;31.20;;
2622;SDS011;1321;48.690;9.022;2023-05-16T09:38:01;31.73;;;29.37;;
2622;SDS011;1321;48.690;9.022;2023-05-16T09:40:29;32.30;;;29.63;;
2622;SDS011;1321;48.690;9.022;2023-05-16T09:43:01;33.37;;;30.73;;
2622;SDS011;1321;48.690;9.022;2023-05-16T09:45:31;32.70;;;30.10;;
2622;SDS011;1321;48.690;9.022;2023-05-16T09:48:03;33.07;;;30.23;;
2622;SDS011;1321;48.690;9.022;2023-05-16T09:50:35;31.97;;;29.37;;
2622;SDS011;1321;48.690;9.022;2023-05-16T09:53:04;33.20;;;30.60;;
2622;SDS011;1321;48.690;9.022;2023-05-16T09:55:33;33.07;;;30.03;;
2622;SDS011;1321;48.690;9.022;2023-05-16T09:58:01;32.00;;;29.30;;
2622;SDS011;1321;48.690;9.022;2023-05-16T10:00:30;33.67;;;30.67;;
2622;SDS011;1321;48.690;9.022;2023-05-16T10:03:00;33.10;;;30.17;;
2622;SDS011;1321;48.690;9.022;2023-05-16T10:05:31;32.30;;;29.80;;
2622;SDS011;1321;48.690;9.022;2023-05-16T10:08:02;31.93;;;29.37;;
2622;SDS011;1321;48.690;9.022;2023-05-16T10:10:32;32.60;;;30.00;;
2622;SDS011;1321;48.690;9.022;2023-05-16T10:13:07;31.63;;;29.07;;
2622;SDS011;1321;48.690;9.022;2023-05-16T10:15:37;30.47;;;28.17;;
2622;SDS011;1321;48.690;9.022;2023-05-16T10:18:06;30.93;;;28.60;;
2622;SDS011;1321;48.690;9.022;2023-05-16T10:20:40;30.83;;;28.53;;
2622;SDS011;1321;48.690;9.022;2023-05-16T10:23:12;29.90;;;27.40;;
2622;SDS011;1321;48.690;9.022;2023-05-16T10:25:45;30.80;;;28.30;;
2622;SDS011;1321;48.690;9.022;2023-05-16T10:28:14;28.90;;;26.70;;
2622;SDS011;1321;48.690;9.022;2023-05-16T10:30:44;30.03;;;27.73;;
2622;SDS011;1321;48.690;9.022;2023-05-16T10:33:13;28.90;;;26.70;;
2622;SDS011;1321;48.690;9.022;2023-05-16T10:35:44;28.40;;;26.20;;
2622;SDS011;1321;48.690;9.022;2023-05-16T10:38:13;28.60;;;26.40;;
2622;SDS011;1321;48.690;9.022;2023-05-16T10:40:44;29.30;;;27.07;;
2622;SDS011;1321;48.690;9.022;2023-05-16T10:43:21;28.80;;;26.63;;
2622;SDS011;1321;48.690;9.022;2023-05-16T10:45:53;29.40;;;27.00;;
2622;SDS011;1321;48.690;9.022;2023-05-16T10:48:34;28.17;;;26.13;;
2622;SDS011;1321;48.690;9.022;2023-05-16T10:54:04;26.63;;;24.73;;
2622;SDS011;1321;48.690;9.022;2023-05-16T10:56:37;27.57;;;25.60;;
2622;SDS011;1321;48.690;9.022;2023-05-16T10:59:21;27.50;;;25.50;;
2622;SDS011;1321;48.690;9.022;2023-05-16T11:01:56;26.90;;;25.00;;
2622;SDS011;1321;48.690;9.022;2023-05-16T11:07:17;25.37;;;23.57;;
2622;SDS011;1321;48.690;9.022;2023-05-16T11:10:00;24.80;;;23.03;;
2622;SDS011;1321;48.690;9.022;2023-05-16T11:15:22;24.63;;;23.10;;
2622;SDS011;1321;48.690;9.022;2023-05-16T11:18:07;25.47;;;23.83;;
2622;SDS011;1321;48.690;9.022;2023-05-16T11:20:36;23.50;;;22.10;;
2622;SDS011;1321;48.690;9.022;2023-05-16T11:23:20;24.03;;;22.83;;
2622;SDS011;1321;48.690;9.022;2023-05-16T11:25:54;22.60;;;21.30;;
2622;SDS011;1321;48.690;9.022;2023-05-16T11:28:23;22.50;;;21.30;;
2622;SDS011;1321;48.690;9.022;2023-05-16T11:30:53;23.23;;;21.83;;
2622;SDS011;1321;48.690;9.022;2023-05-16T11:33:24;21.83;;;20.83;;
2622;SDS011;1321;48.690;9.022;2023-05-16T11:36:09;24.33;;;23.07;;
2622;SDS011;1321;48.690;9.022;2023-05-16T11:38:44;23.23;;;21.90;;
2622;SDS011;1321;48.690;9.022;2023-05-16T11:41:12;22.63;;;21.33;;
2622;SDS011;1321;48.690;9.022;2023-05-16T11:43:43;23.03;;;21.73;;
2622;SDS011;1321;48.690;9.022;2023-05-16T11:46:12;22.80;;;21.60;;
2622;SDS011;1321;48.690;9.022;2023-05-16T11:48:41;22.23;;;20.83;;
2622;SDS011;1321;48.690;9.022;2023-05-16T11:51:11;21.80;;;20.50;;
2622;SDS011;1321;48.690;9.022;2023-05-16T11:53:45;21.80;;;20.63;;
2622;SDS011;1321;48.690;9.022;2023-05-16T11:56:15;21.53;;;20.43;;
2622;SDS011;1321;48.690;9.022;2023-05-16T11:58:43;21.63;;;20.43;;
2622;SDS011;1321;48.690;9.022;2023-05-16T12:01:12;22.13;;;20.90;;
2622;SDS011;1321;48.690;9.022;2023-05-16T12:03:41;22.20;;;20.90;;
2622;SDS011;1321;48.690;9.022;2023-05-16T12:06:10;21.93;;;20.80;;
2622;SDS011;1321;48.690;9.022;2023-05-16T12:08:42;22.30;;;20.90;;
2622;SDS011;1321;48.690;9.022;2023-05-16T12:11:18;21.33;;;20.27;;
2622;SDS011;1321;48.690;9.022;2023-05-16T12:13:47;21.30;;;20.13;;
2622;SDS011;1321;48.690;9.022;2023-05-16T12:16:15;21.00;;;20.03;;
2622;SDS011;1321;48.690;9.022;2023-05-16T12:18:44;21.57;;;20.47;;
2622;SDS011;1321;48.690;9.022;2023-05-16T12:21:13;20.97;;;19.97;;
2622;SDS011;1321;48.690;9.022;2023-05-16T12:23:42;19.73;;;18.90;;
2622;SDS011;1321;48.690;9.022;2023-05-16T12:26:11;20.90;;;19.90;;
2622;SDS011;1321;48.690;9.022;2023-05-16T12:28:39;20.27;;;19.27;;
2622;SDS011;1321;48.690;9.022;2023-05-16T12:31:10;20.40;;;19.20;;
2622;SDS011;1321;48.690;9.022;2023-05-16T12:33:57;20.23;;;19.27;;
2622;SDS011;1321;48.690;9.022;2023-05-16T12:36:29;20.90;;;19.90;;
2622;SDS011;1321;48.690;9.022;2023-05-16T12:38:59;20.57;;;19.60;;
2622;SDS011;1321;48.690;9.022;2023-05-16T12:41:30;19.70;;;18.90;;
2622;SDS011;1321;48.690;9.022;2023-05-16T12:44:10;19.90;;;18.90;;
2622;SDS011;1321;48.690;9.022;2023-05-16T12:46:42;19.57;;;18.77;;
2622;SDS011;1321;48.690;9.022;2023-05-16T12:49:12;19.67;;;18.83;;
2622;SDS011;1321;48.690;9.022;2023-05-16T12:51:47;18.77;;;18.07;;
2622;SDS011;1321;48.690;9.022;2023-05-16T12:54:16;18.90;;;18.10;;
2622;SDS011;1321;48.690;9.022;2023-05-16T12:56:47;20.27;;;19.30;;
2622;SDS011;1321;48.690;9.022;2023-05-16T12:59:15;20.53;;;19.37;;
2622;SDS011;1321;48.690;9.022;2023-05-16T13:01:45;19.43;;;18.43;;
2622;SDS011;1321;48.690;9.022;2023-05-16T13:04:14;19.20;;;18.40;;
2622;SDS011;1321;48.690;9.022;2023-05-16T13:06:45;18.57;;;17.70;;
2622;SDS011;1321;48.690;9.022;2023-05-16T13:09:25;18.83;;;18.13;;
2622;SDS011;1321;48.690;9.022;2023-05-16T13:11:59;19.53;;;18.60;;
2622;SDS011;1321;48.690;9.022;2023-05-16T13:14:27;19.70;;;18.83;;
2622;SDS011;1321;48.690;9.022;2023-05-16T13:16:56;19.50;;;18.70;;
2622;SDS011;1321;48.690;9.022;2023-05-16T13:19:24;19.63;;;18.73;;
2622;SDS011;1321;48.690;9.022;2023-05-16T13:21:52;19.60;;;18.60;;
2622;SDS011;1321;48.690;9.022;2023-05-16T13:24:21;19.40;;;18.60;;
2622;SDS011;1321;48.690;9.022;2023-05-16T13:26:49;19.40;;;18.70;;
2622;SDS011;1321;48.690;9.022;2023-05-16T13:29:19;18.20;;;17.50;;
2622;SDS011;1321;48.690;9.022;2023-05-16T13:31:47;17.60;;;16.90;;
2622;SDS011;1321;48.690;9.022;2023-05-16T13:34:15;18.43;;;17.77;;
2622;SDS011;1321;48.690;9.022;2023-05-16T13:36:44;17.97;;;17.27;;
2622;SDS011;1321;48.690;9.022;2023-05-16T13:39:19;17.63;;;16.80;;
2622;SDS011;1321;48.690;9.022;2023-05-16T13:41:48;16.93;;;16.33;;
2622;SDS011;1321;48.690;9.022;2023-05-16T13:44:18;17.57;;;16.87;;
2622;SDS011;1321;48.690;9.022;2023-05-16T13:46:47;16.83;;;16.20;;
2622;SDS011;1321;48.690;9.022;2023-05-16T13:49:16;17.10;;;16.50;;
2622;SDS011;1321;48.690;9.022;2023-05-16T13:51:46;17.27;;;16.50;;
2622;SDS011;1321;48.690;9.022;2023-05-16T13:54:14;17.10;;;16.30;;
2622;SDS011;1321;48.690;9.022;2023-05-16T13:56:43;16.67;;;15.97;;
2622;SDS011;1321;48.690;9.022;2023-05-16T13:59:11;16.97;;;16.20;;
2622;SDS011;1321;48.690;9.022;2023-05-16T14:01:50;16.63;;;16.13;;
2622;SDS011;1321;48.690;9.022;2023-05-16T14:04:19;16.53;;;16.03;;
2622;SDS011;1321;48.690;9.022;2023-05-16T14:06:47;16.80;;;16.30;;
2622;SDS011;1321;48.690;9.022;2023-05-16T14:09:15;17.40;;;16.73;;
2622;SDS011;1321;48.690;9.022;2023-05-16T14:11:44;15.70;;;15.03;;
2622;SDS011;1321;48.690;9.022;2023-05-16T14:14:12;15.87;;;15.27;;
2622;SDS011;1321;48.690;9.022;2023-05-16T14:16:40;15.30;;;14.70;;
2622;SDS011;1321;48.690;9.022;2023-05-16T14:19:13;16.93;;;16.43;;
2622;SDS011;1321;48.690;9.022;2023-05-16T14:21:44;16.60;;;15.77;;
2622;SDS011;1321;48.690;9.022;2023-05-16T14:24:12;15.40;;;14.90;;
2622;SDS011;1321;48.690;9.022;2023-05-16T14:26:41;15.60;;;15.17;;
2622;SDS011;1321;48.690;9.022;2023-05-16T14:29:09;15.27;;;14.70;;
2622;SDS011;1321;48.690;9.022;2023-05-16T14:31:40;15.30;;;14.80;;
2622;SDS011;1321;48.690;9.022;2023-05-16T14:34:09;16.10;;;15.20;;
2622;SDS011;1321;48.690;9.022;2023-05-16T14:36:38;16.40;;;15.80;;
2622;SDS011;1321;48.690;9.022;2023-05-16T14:39:06;15.57;;;15.07;;
2622;SDS011;1321;48.690;9.022;2023-05-16T14:41:35;16.10;;;15.60;;
2622;SDS011;1321;48.690;9.022;2023-05-16T14:44:03;16.73;;;16.07;;
2622;SDS011;1321;48.690;9.022;2023-05-16T14:46:31;16.70;;;16.00;;
2622;SDS011;1321;48.690;9.022;2023-05-16T14:49:00;16.17;;;15.33;;
2622;SDS011;1321;48.690;9.022;2023-05-16T14:51:28;16.77;;;16.07;;
2622;SDS011;1321;48.690;9.022;2023-05-16T14:53:59;15.30;;;14.60;;
2622;SDS011;1321;48.690;9.022;2023-05-16T14:56:27;15.50;;;14.90;;
2622;SDS011;1321;48.690;9.022;2023-05-16T14:58:55;15.20;;;14.77;;
2622;SDS011;1321;48.690;9.022;2023-05-16T15:01:24;15.70;;;15.10;;
2622;SDS011;1321;48.690;9.022;2023-05-16T15:03:52;15.60;;;14.90;;
2622;SDS011;1321;48.690;9.022;2023-05-16T15:06:22;15.53;;;15.03;;
2622;SDS011;1321;48.690;9.022;2023-05-16T15:08:50;17.40;;;16.50;;
2622;SDS011;1321;48.690;9.022;2023-05-16T15:11:20;17.60;;;16.90;;
2622;SDS011;1321;48.690;9.022;2023-05-16T15:13:49;17.63;;;16.93;;
2622;SDS011;1321;48.690;9.022;2023-05-16T15:16:17;17.47;;;16.83;;
2622;SDS011;1321;48.690;9.022;2023-05-16T15:18:46;17.03;;;16.43;;
2622;SDS011;1321;48.690;9.022;2023-05-16T15:21:15;16.93;;;16.13;;
2622;SDS011;1321;48.690;9.022;2023-05-16T15:23:43;17.10;;;16.50;;
2622;SDS011;1321;48.690;9.022;2023-05-16T15:26:12;16.93;;;16.13;;
2622;SDS011;1321;48.690;9.022;2023-05-16T15:28:41;17.50;;;16.83;;
2622;SDS011;1321;48.690;9.022;2023-05-16T15:31:09;16.87;;;16.27;;
2622;SDS011;1321;48.690;9.022;2023-05-16T15:33:38;17.93;;;17.23;;
2622;SDS011;1321;48.690;9.022;2023-05-16T15:36:06;17.90;;;17.10;;
2622;SDS011;1321;48.690;9.022;2023-05-16T15:38:35;17.13;;;16.40;;
2622;SDS011;1321;48.690;9.022;2023-05-16T15:41:03;17.33;;;16.60;;
2622;SDS011;1321;48.690;9.022;2023-05-16T15:43:52;18.63;;;17.40;;